world map with DTTG marked

DTTG - Airport

This information may not be accurate or current and is not valid for navigation or flight planning. No warranty of fitness for any purpose is made or implied.

flag of Tunisia

Donate via PayPal

Additional information is available on the NEW Great Circle Mapper

Location
City:  Gabès, Tunisia
Name:Matmata International Airport
ICAO / IATA:DTTG / GAE

Details
Type:Airport (Aerodrome, Airfield)
Use:Public/Civil, Military
Latitude:33°43'57"N (33.732500)
Longitude:9°54'58"E (9.916111)
Elevation:410 ft (125 m)
Runways:1
Longest:9869 × 148 ft (3008 × 45 m)

Time
Timezone:UTC+1 (DST+3)
Local Time:

Weather
METAR:DTTG  041400Z 29019KT 8000 BKN030 12/M01 Q1013 NOSIG
TAF:DTTG  (expired)

Related Locations
Nearby:
Farthest:NZJP: 11725 mi / 18870 km
Te Puia Springs [Hospital Heliport], GIS, NZ

Find:

   beyond  
but within

Other Information
Maps:
Sources:

  


 


Great Circle Mapper   Great Circle Mapper
Great Circle Mapper FAQ   Great Circle Mapper FAQ
  Karl's Home Page
KLS²   KLS² Home
   GC on Facebook
Airlines of the World   Airlines of the World
Donate via PayPal


Copyright © 2004-2019, Karl L. Swartz. All rights reserved.
All trademarks mentioned herein belong to their respective owners.

Please see credits for attribution and copyright information.

Karl Swartz <karl@kls2.com>
  Powered by FreeBSD
Valid HTML 4.01!
Labeled with ICRA
hCard Microformat
Geo Microformat